sensor_id;sensor_type;location;lat;lon;timestamp;pressure;altitude;pressure_sealevel;temperature;humidity
40940;BME280;26666;50.156;7.700;2023-04-01T00:04:38;98665.09;;;10.61;100.00
40940;BME280;26666;50.156;7.700;2023-04-01T00:09:40;98655.88;;;10.49;100.00
40940;BME280;26666;50.156;7.700;2023-04-01T00:14:41;98664.13;;;10.54;100.00
40940;BME280;26666;50.156;7.700;2023-04-01T00:19:44;98660.91;;;10.35;100.00
40940;BME280;26666;50.156;7.700;2023-04-01T00:24:46;98662.50;;;10.53;100.00
40940;BME280;26666;50.156;7.700;2023-04-01T00:29:48;98660.88;;;10.43;100.00
40940;BME280;26666;50.156;7.700;2023-04-01T00:34:51;98656.09;;;10.39;100.00
40940;BME280;26666;50.156;7.700;2023-04-01T00:39:54;98654.16;;;10.33;100.00
40940;BME280;26666;50.156;7.700;2023-04-01T00:44:56;98665.88;;;10.22;100.00
40940;BME280;26666;50.156;7.700;2023-04-01T00:49:59;98657.59;;;10.41;100.00
40940;BME280;26666;50.156;7.700;2023-04-01T00:55:02;98652.56;;;10.55;100.00
40940;BME280;26666;50.156;7.700;2023-04-01T01:00:09;98656.72;;;10.49;100.00
40940;BME280;26666;50.156;7.700;2023-04-01T01:05:13;98646.50;;;10.46;100.00
40940;BME280;26666;50.156;7.700;2023-04-01T01:10:17;98644.50;;;10.48;100.00
40940;BME280;26666;50.156;7.700;2023-04-01T01:15:24;98628.88;;;10.38;100.00
40940;BME280;26666;50.156;7.700;2023-04-01T01:20:50;98626.63;;;10.58;100.00
40940;BME280;26666;50.156;7.700;2023-04-01T01:26:02;98628.81;;;10.46;100.00
40940;BME280;26666;50.156;7.700;2023-04-01T01:31:15;98627.38;;;10.44;100.00
40940;BME280;26666;50.156;7.700;2023-04-01T01:36:26;98619.22;;;10.54;100.00
40940;BME280;26666;50.156;7.700;2023-04-01T01:41:31;98622.03;;;10.52;100.00
40940;BME280;26666;50.156;7.700;2023-04-01T01:46:34;98610.66;;;10.52;100.00
40940;BME280;26666;50.156;7.700;2023-04-01T01:51:38;98617.13;;;10.49;100.00
40940;BME280;26666;50.156;7.700;2023-04-01T01:56:41;98617.06;;;10.57;100.00
40940;BME280;26666;50.156;7.700;2023-04-01T02:01:46;98618.09;;;10.48;100.00
40940;BME280;26666;50.156;7.700;2023-04-01T02:06:52;98614.13;;;10.52;100.00
40940;BME280;26666;50.156;7.700;2023-04-01T02:11:57;98616.31;;;10.40;100.00
40940;BME280;26666;50.156;7.700;2023-04-01T02:17:04;98619.97;;;10.39;100.00
40940;BME280;26666;50.156;7.700;2023-04-01T02:22:13;98609.09;;;10.34;100.00
40940;BME280;26666;50.156;7.700;2023-04-01T02:27:17;98611.84;;;10.41;100.00
40940;BME280;26666;50.156;7.700;2023-04-01T02:32:19;98610.09;;;10.33;100.00
40940;BME280;26666;50.156;7.700;2023-04-01T02:37:23;98606.41;;;10.42;100.00
40940;BME280;26666;50.156;7.700;2023-04-01T02:42:25;98611.38;;;10.29;100.00
40940;BME280;26666;50.156;7.700;2023-04-01T02:47:26;98602.38;;;10.23;100.00
40940;BME280;26666;50.156;7.700;2023-04-01T02:52:30;98605.47;;;10.27;100.00
40940;BME280;26666;50.156;7.700;2023-04-01T02:57:31;98603.69;;;10.19;100.00
40940;BME280;26666;50.156;7.700;2023-04-01T03:02:33;98599.94;;;10.14;100.00
40940;BME280;26666;50.156;7.700;2023-04-01T03:07:36;98605.59;;;10.02;100.00
40940;BME280;26666;50.156;7.700;2023-04-01T03:12:38;98599.63;;;10.09;100.00
40940;BME280;26666;50.156;7.700;2023-04-01T03:17:40;98595.31;;;10.07;100.00
40940;BME280;26666;50.156;7.700;2023-04-01T03:22:44;98615.56;;;10.15;100.00
40940;BME280;26666;50.156;7.700;2023-04-01T03:27:45;98604.72;;;10.10;100.00
40940;BME280;26666;50.156;7.700;2023-04-01T03:32:47;98606.16;;;10.21;100.00
40940;BME280;26666;50.156;7.700;2023-04-01T03:37:51;98597.25;;;10.22;100.00
40940;BME280;26666;50.156;7.700;2023-04-01T03:42:54;98597.09;;;10.23;100.00
40940;BME280;26666;50.156;7.700;2023-04-01T03:47:55;98599.19;;;10.36;100.00
40940;BME280;26666;50.156;7.700;2023-04-01T03:52:58;98599.03;;;10.38;100.00
40940;BME280;26666;50.156;7.700;2023-04-01T03:58:00;98600.97;;;10.44;100.00
40940;BME280;26666;50.156;7.700;2023-04-01T04:03:02;98598.63;;;10.49;100.00
40940;BME280;26666;50.156;7.700;2023-04-01T04:08:05;98610.06;;;10.41;100.00
40940;BME280;26666;50.156;7.700;2023-04-01T04:13:07;98603.16;;;10.32;100.00
40940;BME280;26666;50.156;7.700;2023-04-01T04:18:09;98608.56;;;10.39;100.00
40940;BME280;26666;50.156;7.700;2023-04-01T04:23:12;98604.63;;;10.43;100.00
40940;BME280;26666;50.156;7.700;2023-04-01T04:28:13;98600.06;;;10.20;100.00
40940;BME280;26666;50.156;7.700;2023-04-01T04:33:15;98608.09;;;10.27;100.00
40940;BME280;26666;50.156;7.700;2023-04-01T04:38:18;98604.78;;;10.41;100.00
40940;BME280;26666;50.156;7.700;2023-04-01T04:43:20;98594.28;;;10.33;100.00
40940;BME280;26666;50.156;7.700;2023-04-01T04:48:22;98609.22;;;10.41;100.00
40940;BME280;26666;50.156;7.700;2023-04-01T04:53:25;98606.09;;;10.29;100.00
40940;BME280;26666;50.156;7.700;2023-04-01T04:58:27;98602.53;;;10.30;100.00
40940;BME280;26666;50.156;7.700;2023-04-01T05:03:28;98605.66;;;10.17;100.00
40940;BME280;26666;50.156;7.700;2023-04-01T05:08:32;98605.66;;;10.34;100.00
40940;BME280;26666;50.156;7.700;2023-04-01T05:13:34;98611.09;;;10.32;100.00
40940;BME280;26666;50.156;7.700;2023-04-01T05:18:36;98606.94;;;10.38;100.00
40940;BME280;26666;50.156;7.700;2023-04-01T05:23:39;98601.50;;;10.31;100.00
40940;BME280;26666;50.156;7.700;2023-04-01T05:28:41;98602.19;;;10.33;100.00
40940;BME280;26666;50.156;7.700;2023-04-01T05:33:42;98601.19;;;10.34;100.00
40940;BME280;26666;50.156;7.700;2023-04-01T05:38:45;98601.19;;;10.34;100.00
40940;BME280;26666;50.156;7.700;2023-04-01T05:43:47;98598.69;;;10.33;100.00
40940;BME280;26666;50.156;7.700;2023-04-01T05:48:49;98605.94;;;10.39;100.00
40940;BME280;26666;50.156;7.700;2023-04-01T05:53:52;98614.00;;;10.45;100.00
40940;BME280;26666;50.156;7.700;2023-04-01T05:58:54;98617.66;;;10.36;100.00
40940;BME280;26666;50.156;7.700;2023-04-01T06:03:56;98624.06;;;10.42;100.00
40940;BME280;26666;50.156;7.700;2023-04-01T06:09:07;98623.34;;;10.56;100.00
40940;BME280;26666;50.156;7.700;2023-04-01T06:14:22;98626.78;;;10.65;100.00
40940;BME280;26666;50.156;7.700;2023-04-01T06:19:34;98617.84;;;10.66;100.00
40940;BME280;26666;50.156;7.700;2023-04-01T06:24:48;98622.06;;;10.75;100.00
40940;BME280;26666;50.156;7.700;2023-04-01T06:30:03;98615.34;;;10.96;100.00
40940;BME280;26666;50.156;7.700;2023-04-01T06:35:19;98612.28;;;10.84;100.00
40940;BME280;26666;50.156;7.700;2023-04-01T06:40:39;98614.09;;;10.83;100.00
40940;BME280;26666;50.156;7.700;2023-04-01T06:45:47;98608.06;;;10.98;100.00
40940;BME280;26666;50.156;7.700;2023-04-01T06:50:58;98621.22;;;11.06;100.00
40940;BME280;26666;50.156;7.700;2023-04-01T06:56:06;98608.72;;;11.00;100.00
40940;BME280;26666;50.156;7.700;2023-04-01T07:01:13;98614.09;;;11.07;100.00
40940;BME280;26666;50.156;7.700;2023-04-01T07:06:24;98610.94;;;11.11;100.00
40940;BME280;26666;50.156;7.700;2023-04-01T07:11:31;98603.53;;;11.07;100.00
40940;BME280;26666;50.156;7.700;2023-04-01T07:16:38;98624.50;;;11.08;100.00
40940;BME280;26666;50.156;7.700;2023-04-01T07:21:44;98620.97;;;11.16;100.00
40940;BME280;26666;50.156;7.700;2023-04-01T07:26:54;98632.34;;;11.16;100.00
40940;BME280;26666;50.156;7.700;2023-04-01T07:32:11;98636.94;;;11.22;100.00
40940;BME280;26666;50.156;7.700;2023-04-01T07:37:17;98640.44;;;11.38;100.00
40940;BME280;26666;50.156;7.700;2023-04-01T07:42:33;98639.06;;;11.27;100.00
40940;BME280;26666;50.156;7.700;2023-04-01T07:47:49;98655.63;;;11.21;100.00
40940;BME280;26666;50.156;7.700;2023-04-01T07:53:06;98658.97;;;11.38;100.00
40940;BME280;26666;50.156;7.700;2023-04-01T07:58:16;98670.78;;;11.27;100.00
40940;BME280;26666;50.156;7.700;2023-04-01T08:03:36;98670.13;;;11.48;100.00
40940;BME280;26666;50.156;7.700;2023-04-01T08:08:50;98672.66;;;11.41;100.00
40940;BME280;26666;50.156;7.700;2023-04-01T08:14:02;98677.44;;;11.46;100.00
40940;BME280;26666;50.156;7.700;2023-04-01T08:19:16;98679.41;;;11.44;100.00
40940;BME280;26666;50.156;7.700;2023-04-01T08:24:34;98678.06;;;11.48;100.00
40940;BME280;26666;50.156;7.700;2023-04-01T08:29:52;98684.69;;;11.44;100.00
40940;BME280;26666;50.156;7.700;2023-04-01T08:35:05;98692.38;;;11.54;100.00
40940;BME280;26666;50.156;7.700;2023-04-01T08:40:27;98699.25;;;11.63;100.00
40940;BME280;26666;50.156;7.700;2023-04-01T08:45:59;98681.56;;;11.63;100.00
40940;BME280;26666;50.156;7.700;2023-04-01T08:51:27;98685.88;;;11.79;100.00
40940;BME280;26666;50.156;7.700;2023-04-01T08:56:39;98692.59;;;11.90;100.00
40940;BME280;26666;50.156;7.700;2023-04-01T09:02:21;98697.16;;;11.96;100.00
40940;BME280;26666;50.156;7.700;2023-04-01T09:07:37;98714.16;;;12.17;100.00
40940;BME280;26666;50.156;7.700;2023-04-01T09:12:52;98715.06;;;12.09;100.00
40940;BME280;26666;50.156;7.700;2023-04-01T09:18:25;98716.91;;;12.09;100.00
40940;BME280;26666;50.156;7.700;2023-04-01T09:23:43;98719.66;;;12.30;100.00
40940;BME280;26666;50.156;7.700;2023-04-01T09:28:55;98735.38;;;12.32;100.00
40940;BME280;26666;50.156;7.700;2023-04-01T09:34:13;98723.94;;;12.31;100.00
40940;BME280;26666;50.156;7.700;2023-04-01T09:39:35;98731.06;;;12.31;100.00
40940;BME280;26666;50.156;7.700;2023-04-01T09:44:41;98742.75;;;12.36;100.00
40940;BME280;26666;50.156;7.700;2023-04-01T09:50:13;98738.47;;;12.20;100.00
40940;BME280;26666;50.156;7.700;2023-04-01T09:55:38;98738.09;;;12.23;100.00
40940;BME280;26666;50.156;7.700;2023-04-01T10:00:56;98748.41;;;12.33;100.00
40940;BME280;26666;50.156;7.700;2023-04-01T10:06:25;98750.91;;;12.50;100.00
40940;BME280;26666;50.156;7.700;2023-04-01T10:17:24;98758.94;;;12.41;100.00
40940;BME280;26666;50.156;7.700;2023-04-01T10:22:55;98761.56;;;12.71;100.00
40940;BME280;26666;50.156;7.700;2023-04-01T10:28:26;98767.22;;;12.68;100.00
40940;BME280;26666;50.156;7.700;2023-04-01T10:33:56;98758.47;;;12.82;100.00
40940;BME280;26666;50.156;7.700;2023-04-01T10:39:38;98757.16;;;12.93;100.00
40940;BME280;26666;50.156;7.700;2023-04-01T10:50:52;98763.88;;;13.11;100.00
40940;BME280;26666;50.156;7.700;2023-04-01T11:08:08;98759.84;;;13.15;100.00
40940;BME280;26666;50.156;7.700;2023-04-01T11:13:38;98767.75;;;12.93;100.00
40940;BME280;26666;50.156;7.700;2023-04-01T11:19:17;98774.81;;;12.86;100.00
40940;BME280;26666;50.156;7.700;2023-04-01T11:24:43;98770.34;;;12.72;100.00
40940;BME280;26666;50.156;7.700;2023-04-01T11:30:09;98778.28;;;12.57;100.00
40940;BME280;26666;50.156;7.700;2023-04-01T11:35:38;98784.13;;;12.52;100.00
40940;BME280;26666;50.156;7.700;2023-04-01T11:40:47;98788.25;;;12.55;100.00
40940;BME280;26666;50.156;7.700;2023-04-01T11:45:58;98789.34;;;12.60;100.00
40940;BME280;26666;50.156;7.700;2023-04-01T11:51:12;98796.19;;;12.55;100.00
40940;BME280;26666;50.156;7.700;2023-04-01T11:56:32;98802.13;;;12.57;100.00
40940;BME280;26666;50.156;7.700;2023-04-01T12:01:50;98806.34;;;12.66;100.00
40940;BME280;26666;50.156;7.700;2023-04-01T12:07:03;98817.03;;;12.73;100.00
40940;BME280;26666;50.156;7.700;2023-04-01T12:12:19;98804.06;;;12.93;100.00
40940;BME280;26666;50.156;7.700;2023-04-01T12:17:36;98815.13;;;12.96;100.00
40940;BME280;26666;50.156;7.700;2023-04-01T12:22:46;98827.06;;;13.07;100.00
40940;BME280;26666;50.156;7.700;2023-04-01T12:28:03;98821.88;;;13.14;100.00
40940;BME280;26666;50.156;7.700;2023-04-01T12:33:24;98827.00;;;13.15;100.00
40940;BME280;26666;50.156;7.700;2023-04-01T12:38:36;98833.56;;;13.19;100.00
40940;BME280;26666;50.156;7.700;2023-04-01T12:44:03;98827.34;;;13.12;100.00
40940;BME280;26666;50.156;7.700;2023-04-01T12:49:44;98830.34;;;13.09;100.00
40940;BME280;26666;50.156;7.700;2023-04-01T12:55:19;98839.72;;;12.90;100.00
40940;BME280;26666;50.156;7.700;2023-04-01T13:00:43;98842.63;;;12.80;100.00
40940;BME280;26666;50.156;7.700;2023-04-01T13:06:19;98840.88;;;12.88;100.00
40940;BME280;26666;50.156;7.700;2023-04-01T13:11:35;98856.78;;;12.88;100.00
40940;BME280;26666;50.156;7.700;2023-04-01T13:16:42;98857.88;;;12.63;100.00
40940;BME280;26666;50.156;7.700;2023-04-01T13:21:54;98866.28;;;12.67;100.00
40940;BME280;26666;50.156;7.700;2023-04-01T13:27:02;98856.16;;;12.86;100.00
40940;BME280;26666;50.156;7.700;2023-04-01T13:32:18;98878.00;;;12.88;100.00
40940;BME280;26666;50.156;7.700;2023-04-01T13:38:02;98879.47;;;12.90;100.00
40940;BME280;26666;50.156;7.700;2023-04-01T13:43:14;98870.13;;;12.79;100.00
40940;BME280;26666;50.156;7.700;2023-04-01T13:48:29;98868.75;;;12.83;100.00
40940;BME280;26666;50.156;7.700;2023-04-01T13:54:00;98879.91;;;12.94;100.00
40940;BME280;26666;50.156;7.700;2023-04-01T14:05:00;98902.63;;;12.58;100.00
40940;BME280;26666;50.156;7.700;2023-04-01T14:10:19;98906.97;;;12.36;100.00
40940;BME280;26666;50.156;7.700;2023-04-01T14:15:42;98907.13;;;12.20;100.00
40940;BME280;26666;50.156;7.700;2023-04-01T14:20:50;98906.44;;;12.18;100.00
40940;BME280;26666;50.156;7.700;2023-04-01T14:31:36;98917.06;;;12.56;100.00
40940;BME280;26666;50.156;7.700;2023-04-01T14:36:50;98922.78;;;12.45;100.00
40940;BME280;26666;50.156;7.700;2023-04-01T14:42:06;98920.44;;;12.50;100.00
40940;BME280;26666;50.156;7.700;2023-04-01T14:53:09;98944.56;;;12.55;100.00
40940;BME280;26666;50.156;7.700;2023-04-01T14:58:14;98941.47;;;12.28;100.00
40940;BME280;26666;50.156;7.700;2023-04-01T15:03:22;98944.59;;;12.00;100.00
40940;BME280;26666;50.156;7.700;2023-04-01T15:08:29;98952.63;;;12.15;100.00
40940;BME280;26666;50.156;7.700;2023-04-01T15:19:14;98965.16;;;12.21;100.00
40940;BME280;26666;50.156;7.700;2023-04-01T15:24:24;98964.19;;;12.46;100.00
40940;BME280;26666;50.156;7.700;2023-04-01T15:29:38;98956.81;;;12.33;100.00
40940;BME280;26666;50.156;7.700;2023-04-01T15:34:49;98962.53;;;12.45;100.00
40940;BME280;26666;50.156;7.700;2023-04-01T15:39:57;98967.41;;;12.33;100.00
40940;BME280;26666;50.156;7.700;2023-04-01T15:45:18;98983.69;;;12.30;100.00
40940;BME280;26666;50.156;7.700;2023-04-01T15:50:54;98979.81;;;12.09;100.00
40940;BME280;26666;50.156;7.700;2023-04-01T15:56:11;99000.66;;;12.12;100.00
40940;BME280;26666;50.156;7.700;2023-04-01T16:01:26;98995.81;;;11.93;100.00
40940;BME280;26666;50.156;7.700;2023-04-01T16:06:49;99007.22;;;11.85;100.00
40940;BME280;26666;50.156;7.700;2023-04-01T16:12:00;99001.56;;;11.96;100.00
40940;BME280;26666;50.156;7.700;2023-04-01T16:17:16;99007.16;;;12.01;100.00
40940;BME280;26666;50.156;7.700;2023-04-01T16:22:28;99018.28;;;11.97;100.00
40940;BME280;26666;50.156;7.700;2023-04-01T16:27:40;99022.94;;;11.78;100.00
40940;BME280;26666;50.156;7.700;2023-04-01T16:32:46;99023.25;;;11.83;100.00
40940;BME280;26666;50.156;7.700;2023-04-01T16:37:55;99030.09;;;11.70;100.00
40940;BME280;26666;50.156;7.700;2023-04-01T16:43:11;99042.19;;;11.64;100.00
40940;BME280;26666;50.156;7.700;2023-04-01T16:48:17;99052.91;;;11.71;100.00
40940;BME280;26666;50.156;7.700;2023-04-01T16:53:34;99047.28;;;11.74;100.00
40940;BME280;26666;50.156;7.700;2023-04-01T16:58:56;99052.28;;;11.60;100.00
40940;BME280;26666;50.156;7.700;2023-04-01T17:04:04;99063.38;;;11.56;100.00
40940;BME280;26666;50.156;7.700;2023-04-01T17:09:22;99065.03;;;11.49;100.00
40940;BME280;26666;50.156;7.700;2023-04-01T17:14:31;99077.72;;;11.61;100.00
40940;BME280;26666;50.156;7.700;2023-04-01T17:19:49;99086.03;;;11.50;100.00
40940;BME280;26666;50.156;7.700;2023-04-01T17:25:07;99098.59;;;11.40;100.00
40940;BME280;26666;50.156;7.700;2023-04-01T17:30:34;99092.31;;;11.49;100.00
40940;BME280;26666;50.156;7.700;2023-04-01T17:35:39;99105.56;;;11.41;100.00
40940;BME280;26666;50.156;7.700;2023-04-01T17:40:53;99113.50;;;11.33;100.00
40940;BME280;26666;50.156;7.700;2023-04-01T17:46:10;99117.94;;;11.24;100.00
40940;BME280;26666;50.156;7.700;2023-04-01T17:51:26;99116.97;;;11.09;100.00
40940;BME280;26666;50.156;7.700;2023-04-01T17:56:40;99130.53;;;11.05;100.00
40940;BME280;26666;50.156;7.700;2023-04-01T18:01:55;99143.22;;;10.94;100.00
40940;BME280;26666;50.156;7.700;2023-04-01T18:07:18;99143.84;;;10.88;100.00
40940;BME280;26666;50.156;7.700;2023-04-01T18:12:32;99157.25;;;10.86;100.00
40940;BME280;26666;50.156;7.700;2023-04-01T18:17:46;99155.22;;;10.72;100.00
40940;BME280;26666;50.156;7.700;2023-04-01T18:22:55;99167.94;;;10.68;100.00
40940;BME280;26666;50.156;7.700;2023-04-01T18:28:14;99174.22;;;10.67;100.00
40940;BME280;26666;50.156;7.700;2023-04-01T18:33:24;99188.53;;;10.56;100.00
40940;BME280;26666;50.156;7.700;2023-04-01T18:38:29;99196.00;;;10.61;100.00
40940;BME280;26666;50.156;7.700;2023-04-01T18:43:32;99209.66;;;10.56;100.00
40940;BME280;26666;50.156;7.700;2023-04-01T18:48:51;99219.09;;;10.59;100.00
40940;BME280;26666;50.156;7.700;2023-04-01T18:53:53;99223.66;;;10.49;100.00
40940;BME280;26666;50.156;7.700;2023-04-01T18:59:05;99232.59;;;10.56;100.00
40940;BME280;26666;50.156;7.700;2023-04-01T19:04:19;99243.00;;;10.49;100.00
40940;BME280;26666;50.156;7.700;2023-04-01T19:09:24;99250.91;;;10.49;100.00
40940;BME280;26666;50.156;7.700;2023-04-01T19:14:37;99257.88;;;10.58;100.00
40940;BME280;26666;50.156;7.700;2023-04-01T19:19:51;99263.34;;;10.57;100.00
40940;BME280;26666;50.156;7.700;2023-04-01T19:25:10;99271.03;;;10.50;100.00
40940;BME280;26666;50.156;7.700;2023-04-01T19:30:26;99279.81;;;10.51;100.00
40940;BME280;26666;50.156;7.700;2023-04-01T19:35:36;99286.44;;;10.55;100.00
40940;BME280;26666;50.156;7.700;2023-04-01T19:40:47;99293.22;;;10.57;100.00
40940;BME280;26666;50.156;7.700;2023-04-01T19:46:00;99292.69;;;10.54;100.00
40940;BME280;26666;50.156;7.700;2023-04-01T19:51:07;99307.09;;;10.59;100.00
40940;BME280;26666;50.156;7.700;2023-04-01T19:56:15;99308.38;;;10.55;100.00
40940;BME280;26666;50.156;7.700;2023-04-01T20:01:23;99310.34;;;10.53;100.00
40940;BME280;26666;50.156;7.700;2023-04-01T20:06:51;99318.47;;;10.60;100.00
40940;BME280;26666;50.156;7.700;2023-04-01T20:12:00;99332.97;;;10.56;100.00
40940;BME280;26666;50.156;7.700;2023-04-01T20:17:15;99330.28;;;10.48;100.00
40940;BME280;26666;50.156;7.700;2023-04-01T20:22:32;99342.34;;;10.50;100.00
40940;BME280;26666;50.156;7.700;2023-04-01T20:27:44;99349.59;;;10.48;100.00
40940;BME280;26666;50.156;7.700;2023-04-01T20:33:06;99357.94;;;10.35;100.00
40940;BME280;26666;50.156;7.700;2023-04-01T20:38:51;99367.66;;;10.35;100.00
40940;BME280;26666;50.156;7.700;2023-04-01T20:44:08;99372.28;;;10.33;100.00
40940;BME280;26666;50.156;7.700;2023-04-01T20:49:30;99371.72;;;10.29;100.00
40940;BME280;26666;50.156;7.700;2023-04-01T20:54:45;99379.63;;;10.29;100.00
40940;BME280;26666;50.156;7.700;2023-04-01T21:00:24;99386.72;;;10.29;100.00
40940;BME280;26666;50.156;7.700;2023-04-01T21:05:55;99385.91;;;10.28;100.00
40940;BME280;26666;50.156;7.700;2023-04-01T21:11:08;99392.34;;;10.25;100.00
40940;BME280;26666;50.156;7.700;2023-04-01T21:16:23;99400.75;;;10.29;100.00
40940;BME280;26666;50.156;7.700;2023-04-01T21:21:39;99405.00;;;10.22;100.00
40940;BME280;26666;50.156;7.700;2023-04-01T21:26:52;99414.56;;;10.23;100.00
40940;BME280;26666;50.156;7.700;2023-04-01T21:32:20;99420.16;;;10.20;100.00
40940;BME280;26666;50.156;7.700;2023-04-01T21:37:54;99425.34;;;10.12;100.00
40940;BME280;26666;50.156;7.700;2023-04-01T21:43:05;99436.44;;;10.15;100.00
40940;BME280;26666;50.156;7.700;2023-04-01T21:48:35;99436.69;;;10.22;100.00
40940;BME280;26666;50.156;7.700;2023-04-01T21:54:06;99447.00;;;10.15;100.00
40940;BME280;26666;50.156;7.700;2023-04-01T22:04:59;99461.81;;;10.08;100.00
40940;BME280;26666;50.156;7.700;2023-04-01T22:10:15;99463.66;;;9.98;100.00
40940;BME280;26666;50.156;7.700;2023-04-01T22:15:40;99464.06;;;10.03;100.00
40940;BME280;26666;50.156;7.700;2023-04-01T22:20:50;99464.56;;;9.89;100.00
40940;BME280;26666;50.156;7.700;2023-04-01T22:25:59;99468.66;;;10.01;100.00
40940;BME280;26666;50.156;7.700;2023-04-01T22:31:07;99473.72;;;10.12;100.00
40940;BME280;26666;50.156;7.700;2023-04-01T22:36:21;99477.03;;;10.14;100.00
40940;BME280;26666;50.156;7.700;2023-04-01T22:41:34;99479.34;;;9.99;100.00
40940;BME280;26666;50.156;7.700;2023-04-01T22:46:50;99486.91;;;10.12;100.00
40940;BME280;26666;50.156;7.700;2023-04-01T22:51:59;99488.19;;;10.08;100.00
40940;BME280;26666;50.156;7.700;2023-04-01T22:57:08;99495.50;;;9.96;100.00
40940;BME280;26666;50.156;7.700;2023-04-01T23:02:15;99508.69;;;9.96;100.00
40940;BME280;26666;50.156;7.700;2023-04-01T23:07:28;99513.25;;;9.94;100.00
40940;BME280;26666;50.156;7.700;2023-04-01T23:12:33;99513.44;;;9.93;100.00
40940;BME280;26666;50.156;7.700;2023-04-01T23:17:57;99520.13;;;9.87;100.00
40940;BME280;26666;50.156;7.700;2023-04-01T23:23:11;99519.81;;;9.90;100.00
40940;BME280;26666;50.156;7.700;2023-04-01T23:33:55;99526.38;;;9.86;100.00
40940;BME280;26666;50.156;7.700;2023-04-01T23:39:02;99533.47;;;9.85;100.00
40940;BME280;26666;50.156;7.700;2023-04-01T23:44:08;99542.78;;;9.80;100.00
40940;BME280;26666;50.156;7.700;2023-04-01T23:49:14;99549.06;;;9.79;100.00
40940;BME280;26666;50.156;7.700;2023-04-01T23:54:19;99552.50;;;9.79;100.00
40940;BME280;26666;50.156;7.700;2023-04-01T23:59:28;99565.72;;;9.79;100.00
